createdAt,value
2017-09-07T00:00:47.448Z,1005.44
2017-09-07T00:01:57.713Z,1005.37
2017-09-07T00:03:07.995Z,1005.4
2017-09-07T00:04:18.278Z,1005.38
2017-09-07T00:05:28.234Z,1005.32
2017-09-07T00:06:38.760Z,1005.25
2017-09-07T00:07:49.024Z,1005.41
2017-09-07T00:08:58.956Z,1005.55
2017-09-07T00:10:08.948Z,1005.37
2017-09-07T00:11:19.217Z,1005.29
2017-09-07T00:12:28.801Z,1005.4
2017-09-07T00:13:39.081Z,1005.33
2017-09-07T00:14:49.054Z,1005.39
2017-09-07T00:15:59.003Z,1005.49
2017-09-07T00:17:08.954Z,1005.26
2017-09-07T00:18:19.156Z,1005.34
2017-09-07T00:19:29.134Z,1005.49
2017-09-07T00:20:39.407Z,1005.59
2017-09-07T00:21:49.679Z,1005.35
2017-09-07T00:22:59.960Z,1005.41
2017-09-07T00:24:10.209Z,1005.51
2017-09-07T00:25:20.486Z,1005.46
2017-09-07T00:26:30.460Z,1005.49
2017-09-07T00:27:40.413Z,1005.55
2017-09-07T00:28:50.686Z,1005.52
2017-09-07T00:30:01.205Z,1005.38
2017-09-07T00:31:11.483Z,1005.36
2017-09-07T00:32:21.758Z,1005.37
2017-09-07T00:33:32.068Z,1005.44
2017-09-07T00:34:41.992Z,1005.61
2017-09-07T00:35:52.271Z,1005.41
2017-09-07T00:37:02.560Z,1005.5
2017-09-07T00:38:12.526Z,1005.47
2017-09-07T00:39:22.168Z,1005.4
2017-09-07T00:40:32.439Z,1005.41
2017-09-07T00:41:42.959Z,1005.59
2017-09-07T00:42:52.921Z,1005.46
2017-09-07T00:44:02.900Z,1005.38
2017-09-07T00:45:12.870Z,1005.35
2017-09-07T00:46:23.129Z,1005.36
2017-09-07T00:47:33.327Z,1005.35
2017-09-07T00:48:43.624Z,1005.5
2017-09-07T00:49:53.880Z,1005.28
2017-09-07T00:51:03.830Z,1005.45
2017-09-07T00:52:14.111Z,1005.24
2017-09-07T00:53:24.620Z,1005.39
2017-09-07T00:54:34.900Z,1005.35
2017-09-07T00:55:44.868Z,1005.3
2017-09-07T00:56:55.138Z,1005.43
2017-09-07T00:58:05.089Z,1005.29
2017-09-07T00:59:14.988Z,1005.3
2017-09-07T01:00:24.945Z,1005.32
2017-09-07T01:01:35.225Z,1005.27
2017-09-07T01:02:44.859Z,1005.26
2017-09-07T01:03:55.121Z,1005.33
2017-09-07T01:05:05.683Z,1005.23
2017-09-07T01:06:15.610Z,1005.22
2017-09-07T01:07:25.543Z,1005.28
2017-09-07T01:08:35.479Z,1005.34
2017-09-07T01:09:45.411Z,1005.29
2017-09-07T01:10:55.905Z,1005.35
2017-09-07T01:12:05.843Z,1005.16
2017-09-07T01:13:16.097Z,1005.24
2017-09-07T01:14:26.029Z,1005.25
2017-09-07T01:15:36.271Z,1005.35
2017-09-07T01:16:46.777Z,1005.25
2017-09-07T01:17:56.711Z,1005.11
2017-09-07T01:19:06.649Z,1005.3
2017-09-07T01:20:16.897Z,1005.12
2017-09-07T01:21:26.826Z,1005.35
2017-09-07T01:22:37.013Z,1005.15
2017-09-07T01:23:47.260Z,1005.13
2017-09-07T01:24:57.514Z,1005.15
2017-09-07T01:26:07.760Z,1005.33
2017-09-07T01:27:17.697Z,1005.18
2017-09-07T01:28:28.206Z,1005.14
2017-09-07T01:29:38.464Z,1005.15
2017-09-07T01:30:48.714Z,1005.14
2017-09-07T01:31:58.973Z,1005.18
2017-09-07T01:33:09.220Z,1005.21
2017-09-07T01:34:19.402Z,1005.21
2017-09-07T01:35:29.660Z,1005.25
2017-09-07T01:36:39.278Z,1005.26
2017-09-07T01:37:49.526Z,1005.19
2017-09-07T01:38:59.783Z,1005.2
2017-09-07T01:40:10.280Z,1005.18
2017-09-07T01:41:20.210Z,1005.14
2017-09-07T01:42:30.458Z,1005.19
2017-09-07T01:43:40.698Z,1005.15
2017-09-07T01:44:50.312Z,1005.12
2017-09-07T01:46:00.494Z,1005.2
2017-09-07T01:47:10.443Z,1005.15
2017-09-07T01:48:20.702Z,1005.18
2017-09-07T01:49:30.637Z,1005.1
2017-09-07T01:50:40.568Z,1005.09
2017-09-07T01:51:51.073Z,1005.15
2017-09-07T01:53:01.036Z,1005.13
2017-09-07T01:54:11.290Z,1005.23
2017-09-07T01:55:21.536Z,1005.22
2017-09-07T01:56:31.465Z,1005.26
2017-09-07T01:57:41.660Z,1005.37
2017-09-07T01:58:51.597Z,1005.22
2017-09-07T02:00:01.846Z,1005.2
2017-09-07T02:01:11.782Z,1005.25
2017-09-07T02:02:22.024Z,1005.28
2017-09-07T02:03:32.519Z,1005.33
2017-09-07T02:04:42.448Z,1005.38
2017-09-07T02:05:52.696Z,1005.3
2017-09-07T02:07:02.632Z,1005.2
2017-09-07T02:08:12.565Z,1005.33
2017-09-07T02:09:22.798Z,1005.34
2017-09-07T02:10:33.046Z,1005.25
2017-09-07T02:11:43.294Z,1005.34
2017-09-07T02:12:53.227Z,1005.29
2017-09-07T02:14:03.474Z,1005.31
2017-09-07T02:15:13.667Z,1005.3
2017-09-07T02:16:23.597Z,1005.25
2017-09-07T02:17:33.524Z,1005.39
2017-09-07T02:18:43.782Z,1005.46
2017-09-07T02:19:53.717Z,1005.49
2017-09-07T02:21:03.895Z,1005.36
2017-09-07T02:22:13.827Z,1005.27
2017-09-07T02:23:24.077Z,1005.29
2017-09-07T02:24:34.010Z,1005.31
2017-09-07T02:25:44.279Z,1005.31
2017-09-07T02:26:54.778Z,1005.32
2017-09-07T02:28:04.726Z,1005.27
2017-09-07T02:29:14.665Z,1005.23
2017-09-07T02:30:24.908Z,1005.39
2017-09-07T02:31:35.166Z,1005.25
2017-09-07T02:32:45.662Z,1005.3
2017-09-07T02:33:55.589Z,1005.26
2017-09-07T02:35:05.837Z,1005.33
2017-09-07T02:36:16.093Z,1005.28
2017-09-07T02:37:26.354Z,1005.26
2017-09-07T02:38:36.544Z,1005.38
2017-09-07T02:39:46.779Z,1005.28
2017-09-07T02:40:57.044Z,1005.3
2017-09-07T02:42:06.976Z,1005.21
2017-09-07T02:43:17.240Z,1005.17
2017-09-07T02:44:27.753Z,1005.3
2017-09-07T02:45:37.999Z,1005.31
2017-09-07T02:46:47.940Z,1005.25
2017-09-07T02:47:57.868Z,1005.26
2017-09-07T02:49:07.807Z,1005.31
2017-09-07T02:50:18.003Z,1005.37
2017-09-07T02:51:28.266Z,1005.34
2017-09-07T02:52:38.523Z,1005.3
2017-09-07T02:53:48.453Z,1005.29
2017-09-07T02:54:58.714Z,1005.4
2017-09-07T02:56:08.581Z,1005.29
2017-09-07T02:57:18.526Z,1005.26
2017-09-07T02:58:28.776Z,1005.32
2017-09-07T02:59:39.050Z,1005.4
2017-09-07T03:00:49.297Z,1005.29
2017-09-07T03:01:59.789Z,1005.29
2017-09-07T03:03:09.723Z,1005.29
2017-09-07T03:04:19.978Z,1005.29
2017-09-07T03:05:30.224Z,1005.31
2017-09-07T03:06:40.162Z,1005.32
2017-09-07T03:07:50.660Z,1005.36
2017-09-07T03:09:00.918Z,1005.28
2017-09-07T03:10:11.172Z,1005.29
2017-09-07T03:11:21.099Z,1005.31
2017-09-07T03:12:31.042Z,1005.32
2017-09-07T03:13:41.586Z,1005.35
2017-09-07T03:14:51.852Z,1005.31
2017-09-07T03:16:02.092Z,1005.4
2017-09-07T03:17:12.356Z,1005.26
2017-09-07T03:18:22.291Z,1005.28
2017-09-07T03:19:32.481Z,1005.3
2017-09-07T03:20:42.734Z,1005.38
2017-09-07T03:21:52.667Z,1005.32
2017-09-07T03:23:02.915Z,1005.36
2017-09-07T03:24:12.850Z,1005.32
2017-09-07T03:25:23.363Z,1005.34
2017-09-07T03:26:33.609Z,1005.3
2017-09-07T03:27:43.541Z,1005.25
2017-09-07T03:28:53.793Z,1005.34
2017-09-07T03:30:04.079Z,1005.3
2017-09-07T03:31:14.272Z,1005.43
2017-09-07T03:32:24.531Z,1005.27
2017-09-07T03:33:34.469Z,1005.32
2017-09-07T03:34:44.715Z,1005.3
2017-09-07T03:35:54.962Z,1005.28
2017-09-07T03:37:05.472Z,1005.37
2017-09-07T03:38:15.403Z,1005.31
2017-09-07T03:39:25.669Z,1005.31
2017-09-07T03:40:35.921Z,1005.36
2017-09-07T03:41:46.420Z,1005.29
2017-09-07T03:42:56.913Z,1005.32
2017-09-07T03:44:06.847Z,1005.34
2017-09-07T03:45:16.795Z,1005.29
2017-09-07T03:46:26.417Z,1005.46
2017-09-07T03:47:36.680Z,1005.39
2017-09-07T03:48:47.172Z,1005.31
2017-09-07T03:49:56.791Z,1005.3
2017-09-07T03:51:07.036Z,1005.34
2017-09-07T03:52:16.336Z,1005.31
2017-09-07T03:53:26.632Z,1005.34
2017-09-07T03:54:36.820Z,1005.3
2017-09-07T03:55:47.064Z,1005.41
2017-09-07T03:56:57.303Z,1005.34
2017-09-07T03:58:07.547Z,1005.35
2017-09-07T03:59:16.865Z,1005.34
2017-09-07T04:00:26.773Z,1005.3
2017-09-07T04:01:37.022Z,1005.32
2017-09-07T04:02:47.276Z,1005.36
2017-09-07T04:03:57.530Z,1005.32
2017-09-07T04:05:06.835Z,1005.35
2017-09-07T04:06:17.348Z,1005.35
2017-09-07T04:07:26.961Z,1005.37
2017-09-07T04:08:37.210Z,1005.38
2017-09-07T04:09:47.460Z,1005.37
2017-09-07T04:10:57.711Z,1005.34
2017-09-07T04:12:07.627Z,1005.37
2017-09-07T04:13:17.889Z,1005.45
2017-09-07T04:14:28.135Z,1005.42
2017-09-07T04:15:38.074Z,1005.4
2017-09-07T04:16:48.011Z,1005.32
2017-09-07T04:17:57.880Z,1005.32
2017-09-07T04:19:07.824Z,1005.33
2017-09-07T04:20:17.769Z,1005.37
2017-09-07T04:21:28.012Z,1005.5
2017-09-07T04:22:37.955Z,1005.29
2017-09-07T04:23:47.817Z,1005.35
2017-09-07T04:24:58.065Z,1005.37
2017-09-07T04:26:07.994Z,1005.32
2017-09-07T04:27:17.618Z,1005.3
2017-09-07T04:28:27.895Z,1005.29
2017-09-07T04:29:37.761Z,1005.19
2017-09-07T04:30:48.012Z,1005.45
2017-09-07T04:31:58.276Z,1005.32
2017-09-07T04:33:08.538Z,1005.41
2017-09-07T04:34:18.469Z,1005.35
2017-09-07T04:35:28.655Z,1005.36
2017-09-07T04:36:38.911Z,1005.4
2017-09-07T04:37:48.855Z,1005.33
2017-09-07T04:38:59.110Z,1005.42
2017-09-07T04:40:09.355Z,1005.41
2017-09-07T04:41:19.861Z,1005.34
2017-09-07T04:42:30.129Z,1005.37
2017-09-07T04:43:40.070Z,1005.35
2017-09-07T04:44:50.318Z,1005.39
2017-09-07T04:46:00.582Z,1005.47
2017-09-07T04:47:11.081Z,1005.4
2017-09-07T04:48:21.014Z,1005.43
2017-09-07T04:49:30.944Z,1005.38
2017-09-07T04:50:41.192Z,1005.44
2017-09-07T04:51:51.433Z,1005.56
2017-09-07T04:53:01.647Z,1005.49
2017-09-07T04:54:11.894Z,1005.5
2017-09-07T04:55:22.149Z,1005.4
2017-09-07T04:56:32.088Z,1005.51
2017-09-07T04:57:42.340Z,1005.6
2017-09-07T04:58:52.562Z,1005.55
2017-09-07T05:00:02.808Z,1005.49
2017-09-07T05:01:12.750Z,1005.53
2017-09-07T05:02:23.014Z,1005.52
2017-09-07T05:03:32.945Z,1005.53
2017-09-07T05:04:43.133Z,1005.59
2017-09-07T05:05:53.091Z,1005.54
2017-09-07T05:07:03.345Z,1005.65
2017-09-07T05:08:13.591Z,1005.65
2017-09-07T05:09:23.843Z,1005.82
2017-09-07T05:10:34.020Z,1005.71
2017-09-07T05:11:43.946Z,1005.61
2017-09-07T05:12:53.567Z,1005.68
2017-09-07T05:14:03.514Z,1005.61
2017-09-07T05:15:13.449Z,1005.7
2017-09-07T05:16:23.957Z,1005.65
2017-09-07T05:17:33.891Z,1005.64
2017-09-07T05:18:43.515Z,1005.61
2017-09-07T05:19:53.768Z,1005.69
2017-09-07T05:21:04.037Z,1005.64
2017-09-07T05:22:14.560Z,1005.58
2017-09-07T05:23:24.532Z,1005.54
2017-09-07T05:24:34.802Z,1005.73
2017-09-07T05:25:45.053Z,1005.59
2017-09-07T05:26:54.992Z,1005.59
2017-09-07T05:28:05.505Z,1005.65
2017-09-07T05:29:15.757Z,1005.66
2017-09-07T05:30:26.002Z,1005.64
2017-09-07T05:31:35.936Z,1005.57
2017-09-07T05:32:45.880Z,1005.77
2017-09-07T05:33:56.373Z,1005.61
2017-09-07T05:35:06.629Z,1005.61
2017-09-07T05:36:16.558Z,1005.63
2017-09-07T05:37:26.820Z,1005.71
2017-09-07T05:38:37.077Z,1005.85
2017-09-07T05:39:47.574Z,1005.6
2017-09-07T05:40:57.824Z,1005.55
2017-09-07T05:42:07.772Z,1005.68
2017-09-07T05:43:17.720Z,1005.68
2017-09-07T05:44:27.974Z,1005.66
2017-09-07T05:45:38.482Z,1005.78
2017-09-07T05:46:48.461Z,1005.69
2017-09-07T05:47:58.736Z,1005.81
2017-09-07T05:49:08.679Z,1005.71
2017-09-07T05:50:18.959Z,1005.77
2017-09-07T05:51:29.460Z,1005.72
2017-09-07T05:52:39.726Z,1005.71
2017-09-07T05:53:49.358Z,1005.73
2017-09-07T05:54:59.629Z,1005.82
2017-09-07T05:56:09.587Z,1005.73
2017-09-07T05:57:20.153Z,1005.73
2017-09-07T05:58:30.443Z,1005.76
2017-09-07T05:59:40.063Z,1005.79
2017-09-07T06:00:50.374Z,1005.76
2017-09-07T06:02:00.636Z,1005.77
2017-09-07T06:03:11.200Z,1005.8
2017-09-07T06:04:21.458Z,1005.75
2017-09-07T06:05:31.706Z,1005.79
2017-09-07T06:06:41.956Z,1005.81
2017-09-07T06:07:51.902Z,1005.95
2017-09-07T06:09:02.425Z,1005.97
2017-09-07T06:10:12.676Z,1005.82
2017-09-07T06:11:22.612Z,1005.91
2017-09-07T06:12:32.887Z,1005.77
2017-09-07T06:13:43.133Z,1005.95
2017-09-07T06:14:53.329Z,1005.87
2017-09-07T06:16:03.255Z,1005.97
2017-09-07T06:17:13.514Z,1005.93
2017-09-07T06:18:23.767Z,1005.82
2017-09-07T06:19:33.737Z,1005.96
2017-09-07T06:20:44.258Z,1005.89
2017-09-07T06:21:54.518Z,1005.92
2017-09-07T06:23:04.769Z,1005.88
2017-09-07T06:24:15.028Z,1006.08
2017-09-07T06:25:24.958Z,1006.1
2017-09-07T06:26:35.488Z,1005.92
2017-09-07T06:27:45.737Z,1005.98
2017-09-07T06:28:56.004Z,1005.93
2017-09-07T06:30:06.258Z,1005.84
2017-09-07T06:31:16.201Z,1005.93
2017-09-07T06:32:26.708Z,1005.91
2017-09-07T06:33:36.641Z,1005.85
2017-09-07T06:34:46.572Z,1005.84
2017-09-07T06:35:56.854Z,1005.89
2017-09-07T06:37:06.789Z,1005.82
2017-09-07T06:38:17.293Z,1006.05
2017-09-07T06:39:27.225Z,1005.99
2017-09-07T06:40:37.167Z,1005.83
2017-09-07T06:41:47.440Z,1005.86
2017-09-07T06:42:57.689Z,1005.9
2017-09-07T06:44:08.185Z,1005.82
2017-09-07T06:45:18.125Z,1005.8
2017-09-07T06:46:28.059Z,1005.93
2017-09-07T06:47:38.318Z,1005.82
2017-09-07T06:48:47.953Z,1005.92
2017-09-07T06:49:58.360Z,1005.94
2017-09-07T06:51:08.615Z,1005.76
2017-09-07T06:52:18.553Z,1005.9
2017-09-07T06:53:28.809Z,1005.85
2017-09-07T06:54:38.755Z,1005.78
2017-09-07T06:55:49.288Z,1005.9
2017-09-07T06:56:59.567Z,1006.01
2017-09-07T06:58:09.831Z,1005.78
2017-09-07T06:59:20.090Z,1005.84
2017-09-07T07:00:30.377Z,1005.76
2017-09-07T07:01:40.881Z,1005.71
2017-09-07T07:02:50.843Z,1005.83
2017-09-07T07:04:01.145Z,1006.07
2017-09-07T07:05:11.438Z,1006.01
2017-09-07T07:06:21.696Z,1005.78
2017-09-07T07:07:31.936Z,1005.92
2017-09-07T07:08:42.306Z,1005.96
2017-09-07T07:09:52.662Z,1005.96
2017-09-07T07:11:03.000Z,1005.99
2017-09-07T07:12:13.004Z,1005.87
2017-09-07T07:13:23.542Z,1006.04
2017-09-07T07:14:33.840Z,1005.89
2017-09-07T07:15:44.139Z,1005.83
2017-09-07T07:16:54.391Z,1006.04
2017-09-07T07:18:04.369Z,1005.84
2017-09-07T07:19:14.911Z,1005.88
2017-09-07T07:20:25.176Z,1005.9
2017-09-07T07:21:35.426Z,1006.06
2017-09-07T07:22:45.677Z,1005.89
2017-09-07T07:23:55.995Z,1006.01
2017-09-07T07:25:06.455Z,1005.91
2017-09-07T07:26:16.731Z,1005.94
2017-09-07T07:27:26.713Z,1005.76
2017-09-07T07:28:37.067Z,1005.79
2017-09-07T07:29:46.698Z,1005.82
2017-09-07T07:30:57.223Z,1005.81
2017-09-07T07:32:07.487Z,1006
2017-09-07T07:33:17.830Z,1005.94
2017-09-07T07:34:28.158Z,1005.97
2017-09-07T07:35:38.128Z,1005.94
2017-09-07T07:36:48.675Z,1005.9
2017-09-07T07:37:59.239Z,1006.01
2017-09-07T07:39:09.554Z,1005.87
2017-09-07T07:40:20.088Z,1005.96
2017-09-07T07:41:29.934Z,1006.2
2017-09-07T07:42:40.496Z,1005.98
2017-09-07T07:43:51.074Z,1005.94
2017-09-07T07:45:01.058Z,1006.01
2017-09-07T07:46:11.374Z,1005.88
2017-09-07T07:47:21.650Z,1006
2017-09-07T07:48:32.188Z,1005.98
2017-09-07T07:49:42.472Z,1005.95
2017-09-07T07:50:52.426Z,1005.96
2017-09-07T07:52:02.715Z,1005.96
2017-09-07T07:53:12.975Z,1005.91
2017-09-07T07:54:23.209Z,1005.94
2017-09-07T07:55:33.498Z,1005.92
2017-09-07T07:56:43.450Z,1005.98
2017-09-07T07:57:53.711Z,1006.02
2017-09-07T07:59:03.673Z,1005.95
2017-09-07T08:00:14.190Z,1005.98
2017-09-07T08:01:24.168Z,1005.97
2017-09-07T08:02:34.473Z,1006.16
2017-09-07T08:03:44.431Z,1006.05
2017-09-07T08:04:54.730Z,1006.03
2017-09-07T08:06:05.239Z,1005.98
2017-09-07T08:07:15.196Z,1005.95
2017-09-07T08:08:25.495Z,1005.94
2017-09-07T08:09:35.789Z,1006.03
2017-09-07T08:10:46.068Z,1005.94
2017-09-07T08:11:56.365Z,1005.99
2017-09-07T08:13:06.630Z,1005.96
2017-09-07T08:14:16.594Z,1006.1
2017-09-07T08:15:26.549Z,1006.23
2017-09-07T08:16:36.813Z,1005.9
2017-09-07T08:17:46.694Z,1005.99
2017-09-07T08:18:56.943Z,1005.91
2017-09-07T08:20:07.214Z,1006.02
2017-09-07T08:21:17.485Z,1005.88
2017-09-07T08:22:27.435Z,1005.88
2017-09-07T08:23:38.000Z,1006.1
2017-09-07T08:24:48.284Z,1005.82
2017-09-07T08:25:58.242Z,1006.05
2017-09-07T08:27:08.217Z,1006.01
2017-09-07T08:28:18.528Z,1006.06
2017-09-07T08:29:29.104Z,1005.95
2017-09-07T08:30:38.745Z,1005.94
2017-09-07T08:31:48.380Z,1006
2017-09-07T08:32:58.674Z,1005.96
2017-09-07T08:34:08.993Z,1006.06
2017-09-07T08:35:19.532Z,1006.08
2017-09-07T08:36:28.866Z,1006.02
2017-09-07T08:37:38.837Z,1006.02
2017-09-07T08:38:48.812Z,1006.05
2017-09-07T08:39:59.116Z,1006.09
2017-09-07T08:41:09.630Z,1006.07
2017-09-07T08:42:19.570Z,1006.19
2017-09-07T08:43:29.868Z,1006.19
2017-09-07T08:44:40.196Z,1006.19
2017-09-07T08:45:50.470Z,1006.23
2017-09-07T08:47:01.071Z,1006.11
2017-09-07T08:48:11.066Z,1006.41
2017-09-07T08:49:21.011Z,1006.07
2017-09-07T08:50:31.269Z,1006.34
2017-09-07T08:51:41.211Z,1006.17
2017-09-07T08:52:51.113Z,1006.22
2017-09-07T08:54:01.396Z,1006.07
2017-09-07T08:55:11.054Z,1006.26
2017-09-07T08:56:21.014Z,1006.15
2017-09-07T08:57:31.270Z,1006.2
2017-09-07T08:58:41.815Z,1006.19
2017-09-07T08:59:52.069Z,1006.04
2017-09-07T09:01:02.364Z,1006.04
2017-09-07T09:02:12.351Z,1006.29
2017-09-07T09:03:22.630Z,1006.06
2017-09-07T09:04:33.142Z,1006.2
2017-09-07T09:05:43.673Z,1006.04
2017-09-07T09:06:53.938Z,1006.2
2017-09-07T09:08:04.219Z,1006.16
2017-09-07T09:09:14.181Z,1005.96
2017-09-07T09:10:24.686Z,1006.06
2017-09-07T09:11:34.686Z,1005.92
2017-09-07T09:12:44.934Z,1006.07
2017-09-07T09:13:54.886Z,1006.08
2017-09-07T09:15:04.855Z,1006.18
2017-09-07T09:16:15.386Z,1006.21
2017-09-07T09:17:25.659Z,1006.19
2017-09-07T09:18:35.919Z,1006.1
2017-09-07T09:19:45.556Z,1006.09
2017-09-07T09:20:55.813Z,1006.23
2017-09-07T09:22:06.020Z,1006.09
2017-09-07T09:23:15.957Z,1006.08
2017-09-07T09:24:26.238Z,1006.4
2017-09-07T09:25:36.511Z,1006.3
2017-09-07T09:26:46.776Z,1006.12
2017-09-07T09:27:56.968Z,1006.05
2017-09-07T09:29:06.922Z,1006.05
2017-09-07T09:30:16.863Z,1006.09
2017-09-07T09:31:27.131Z,1006.16
2017-09-07T09:32:37.397Z,1006.35
2017-09-07T09:33:47.912Z,1006.1
2017-09-07T09:34:57.874Z,1006.09
2017-09-07T09:36:08.150Z,1006.09
2017-09-07T09:37:18.419Z,1006.16
2017-09-07T09:38:28.758Z,1006.06
2017-09-07T09:39:39.269Z,1006.28
2017-09-07T09:40:48.889Z,1006.22
2017-09-07T09:41:58.837Z,1006.24
2017-09-07T09:43:09.099Z,1006.09
2017-09-07T09:44:19.072Z,1006.02
2017-09-07T09:45:29.576Z,1006.19
2017-09-07T09:46:39.837Z,1006.14
2017-09-07T09:47:49.789Z,1006.07
2017-09-07T09:49:00.070Z,1006.09
2017-09-07T09:50:10.351Z,1006.01
2017-09-07T09:51:20.938Z,1006.04
2017-09-07T09:52:30.910Z,1006.03
2017-09-07T09:53:40.854Z,1006.03
2017-09-07T09:54:51.221Z,1006.17
2017-09-07T09:56:01.486Z,1006
2017-09-07T09:57:12.002Z,1006.03
2017-09-07T09:58:21.953Z,1006.02
2017-09-07T09:59:31.919Z,1006.02
2017-09-07T10:00:41.861Z,1005.99
2017-09-07T10:01:52.124Z,1005.89
2017-09-07T10:03:02.657Z,1005.86
2017-09-07T10:04:12.608Z,1005.83
2017-09-07T10:05:22.452Z,1005.94
2017-09-07T10:06:32.414Z,1005.81
2017-09-07T10:07:42.670Z,1005.81
2017-09-07T10:08:53.179Z,1005.91
2017-09-07T10:10:03.459Z,1005.83
2017-09-07T10:11:13.733Z,1005.8
2017-09-07T10:12:23.994Z,1005.86
2017-09-07T10:13:33.975Z,1006.04
2017-09-07T10:14:44.496Z,1005.97
2017-09-07T10:15:54.480Z,1005.94
2017-09-07T10:17:04.748Z,1005.92
2017-09-07T10:18:15.014Z,1005.91
2017-09-07T10:19:25.319Z,1005.94
2017-09-07T10:20:35.561Z,1005.81
2017-09-07T10:21:45.524Z,1005.9
2017-09-07T10:22:55.795Z,1005.9
2017-09-07T10:24:06.061Z,1005.84
2017-09-07T10:25:16.340Z,1005.89
2017-09-07T10:26:26.547Z,1005.73
2017-09-07T10:27:36.503Z,1005.72
2017-09-07T10:28:46.844Z,1005.76
2017-09-07T10:29:56.830Z,1005.88
2017-09-07T10:31:07.110Z,1005.85
2017-09-07T10:32:17.641Z,1005.71
2017-09-07T10:33:27.650Z,1005.87
2017-09-07T10:34:37.935Z,1005.98
2017-09-07T10:35:47.903Z,1005.93
2017-09-07T10:36:58.284Z,1006.02
2017-09-07T10:38:08.166Z,1005.87
2017-09-07T10:39:18.440Z,1005.91
2017-09-07T10:40:28.743Z,1005.93
2017-09-07T10:41:39.037Z,1005.98
2017-09-07T10:42:49.326Z,1006.11
2017-09-07T10:43:59.196Z,1006.02
2017-09-07T10:45:09.476Z,1006.1
2017-09-07T10:46:19.740Z,1005.98
2017-09-07T10:47:29.684Z,1006.03
2017-09-07T10:48:39.315Z,1006.04
2017-09-07T10:49:50.110Z,1006.13
2017-09-07T10:51:00.392Z,1006.02
2017-09-07T10:52:10.644Z,1006.02
2017-09-07T10:53:20.914Z,1005.93
2017-09-07T10:54:30.880Z,1005.93
2017-09-07T10:55:41.417Z,1006.06
2017-09-07T10:56:51.678Z,1005.87
2017-09-07T10:58:02.263Z,1005.88
2017-09-07T10:59:12.553Z,1005.8
2017-09-07T11:00:22.503Z,1005.85
2017-09-07T11:01:33.032Z,1005.86
2017-09-07T11:02:43.315Z,1005.79
2017-09-07T11:03:53.589Z,1005.88
2017-09-07T11:05:03.843Z,1005.89
2017-09-07T11:06:14.107Z,1005.74
2017-09-07T11:07:24.688Z,1005.89
2017-09-07T11:08:34.635Z,1005.93
2017-09-07T11:09:44.886Z,1005.8
2017-09-07T11:10:55.153Z,1005.87
2017-09-07T11:12:05.115Z,1005.93
2017-09-07T11:13:15.663Z,1005.99
2017-09-07T11:14:25.927Z,1006.03
2017-09-07T11:15:36.187Z,1005.91
2017-09-07T11:16:46.452Z,1005.92
2017-09-07T11:17:56.719Z,1006
2017-09-07T11:19:07.159Z,1006.09
2017-09-07T11:20:17.127Z,1005.99
2017-09-07T11:21:27.394Z,1005.94
2017-09-07T11:22:37.362Z,1005.98
2017-09-07T11:23:47.299Z,1005.94
2017-09-07T11:24:57.826Z,1005.94
2017-09-07T11:26:08.110Z,1006.05
2017-09-07T11:27:18.365Z,1006.07
2017-09-07T11:28:28.312Z,1005.92
2017-09-07T11:29:38.563Z,1005.83
2017-09-07T11:30:48.752Z,1005.78
2017-09-07T11:31:59.015Z,1005.96
2017-09-07T11:33:09.283Z,1005.86
2017-09-07T11:34:19.542Z,1005.91
2017-09-07T11:35:29.808Z,1005.86
2017-09-07T11:36:40.331Z,1005.87
2017-09-07T11:37:50.603Z,1005.95
2017-09-07T11:39:00.863Z,1005.99
2017-09-07T11:40:11.113Z,1006.04
2017-09-07T11:41:20.752Z,1005.93
2017-09-07T11:42:31.269Z,1005.88
2017-09-07T11:43:41.525Z,1005.9
2017-09-07T11:44:51.468Z,1005.92
2017-09-07T11:46:01.719Z,1005.92
2017-09-07T11:47:11.657Z,1006.15
2017-09-07T11:48:21.872Z,1006.08
2017-09-07T11:49:32.141Z,1006.09
2017-09-07T11:50:42.408Z,1006.17
2017-09-07T11:51:52.676Z,1006.18
2017-09-07T11:53:02.929Z,1005.99
2017-09-07T11:54:13.441Z,1006.07
2017-09-07T11:55:23.702Z,1006.1
2017-09-07T11:56:33.963Z,1006.15
2017-09-07T11:57:44.219Z,1006.03
2017-09-07T11:58:54.495Z,1006.1
2017-09-07T12:00:04.690Z,1006.06
2017-09-07T12:01:14.634Z,1006.08
2017-09-07T12:02:24.939Z,1006.18
2017-09-07T12:03:35.222Z,1006.08
2017-09-07T12:04:44.530Z,1006.15
2017-09-07T12:05:54.415Z,1006.07
2017-09-07T12:07:04.049Z,1006.11
2017-09-07T12:08:14.323Z,1006.08
2017-09-07T12:09:23.964Z,1006.19
2017-09-07T12:10:33.935Z,1006.1
2017-09-07T12:11:44.131Z,1006.01
2017-09-07T12:12:54.403Z,1006.07
2017-09-07T12:14:04.744Z,1006.04
2017-09-07T12:15:14.710Z,1006.02
2017-09-07T12:16:24.061Z,1006.05
2017-09-07T12:17:34.241Z,1006.05
2017-09-07T12:18:44.176Z,1006.06
2017-09-07T12:19:54.125Z,1006.18
2017-09-07T12:21:04.076Z,1005.97
2017-09-07T12:22:13.706Z,1006.04
2017-09-07T12:23:23.913Z,1005.99
2017-09-07T12:24:34.195Z,1006.03
2017-09-07T12:25:44.488Z,1006.02
2017-09-07T12:26:54.445Z,1006.14
2017-09-07T12:28:04.727Z,1006.08
2017-09-07T12:29:15.278Z,1006.05
2017-09-07T12:30:25.544Z,1006.05
2017-09-07T12:31:36.075Z,1006.11
2017-09-07T12:32:46.354Z,1006.04
2017-09-07T12:33:56.654Z,1006.02
2017-09-07T12:35:07.256Z,1006.05
2017-09-07T12:36:17.628Z,1006.07
2017-09-07T12:37:27.906Z,1006.11
2017-09-07T12:38:38.198Z,1006.17
2017-09-07T12:39:47.846Z,1006.19
2017-09-07T12:40:58.393Z,1006.22
2017-09-07T12:42:08.335Z,1006.11
2017-09-07T12:43:18.619Z,1006.21
2017-09-07T12:44:28.916Z,1006.16
2017-09-07T12:45:38.863Z,1006.16
2017-09-07T12:46:49.070Z,1006.13
2017-09-07T12:47:58.432Z,1006.08
2017-09-07T12:49:08.766Z,1006.21
2017-09-07T12:50:19.105Z,1006.2
2017-09-07T12:51:29.427Z,1006.18
2017-09-07T12:52:39.648Z,1006.17
2017-09-07T12:53:49.670Z,1006.13
2017-09-07T12:54:59.623Z,1006.18
2017-09-07T12:56:09.920Z,1006.12
2017-09-07T12:57:20.253Z,1006.3
2017-09-07T12:58:30.488Z,1006.17
2017-09-07T12:59:40.801Z,1006.32
2017-09-07T13:00:51.119Z,1006.21
2017-09-07T13:02:01.424Z,1006.16
2017-09-07T13:03:11.706Z,1006.14
2017-09-07T13:04:22.256Z,1006.49
2017-09-07T13:05:32.228Z,1006.26
2017-09-07T13:06:42.172Z,1006.13
2017-09-07T13:07:52.501Z,1006.13
2017-09-07T13:09:02.790Z,1006.22
2017-09-07T13:10:13.377Z,1006.18
2017-09-07T13:11:23.659Z,1006.11
2017-09-07T13:12:33.610Z,1006.1
2017-09-07T13:13:43.905Z,1006.17
2017-09-07T13:14:54.163Z,1006.24
2017-09-07T13:16:04.382Z,1006.29
2017-09-07T13:17:14.641Z,1006.32
2017-09-07T13:18:24.910Z,1006.23
2017-09-07T13:19:35.177Z,1006.27
2017-09-07T13:20:45.144Z,1006.44
2017-09-07T13:21:55.338Z,1006.36
2017-09-07T13:23:05.002Z,1006.3
2017-09-07T13:24:14.947Z,1006.28
2017-09-07T13:25:24.895Z,1006.33
2017-09-07T13:26:35.189Z,1006.27
2017-09-07T13:27:45.377Z,1006.33
2017-09-07T13:28:55.661Z,1006.28
2017-09-07T13:30:05.918Z,1006.33
2017-09-07T13:31:16.173Z,1006.34
2017-09-07T13:32:26.437Z,1006.34
2017-09-07T13:33:36.635Z,1006.41
2017-09-07T13:34:46.599Z,1006.41
2017-09-07T13:35:56.862Z,1006.36
2017-09-07T13:37:06.834Z,1006.43
2017-09-07T13:38:16.474Z,1006.41
2017-09-07T13:39:26.731Z,1006.33
2017-09-07T13:40:37.008Z,1006.4
2017-09-07T13:41:47.278Z,1006.34
2017-09-07T13:42:57.543Z,1006.46
2017-09-07T13:44:07.822Z,1006.41
2017-09-07T13:45:18.334Z,1006.33
2017-09-07T13:46:28.280Z,1006.43
2017-09-07T13:47:38.547Z,1006.41
2017-09-07T13:48:48.176Z,1006.38
2017-09-07T13:49:58.464Z,1006.4
2017-09-07T13:51:08.984Z,1006.37
2017-09-07T13:52:19.275Z,1006.33
2017-09-07T13:53:29.242Z,1006.31
2017-09-07T13:54:39.208Z,1006.23
2017-09-07T13:55:49.465Z,1006.32
2017-09-07T13:57:00.026Z,1006.23
2017-09-07T13:58:10.296Z,1006.22
2017-09-07T13:59:20.558Z,1006.24
2017-09-07T14:00:30.514Z,1006.23
2017-09-07T14:01:40.776Z,1006.13
2017-09-07T14:02:50.654Z,1006.14
2017-09-07T14:04:00.281Z,1006.11
2017-09-07T14:05:10.240Z,1006.17
2017-09-07T14:06:20.205Z,1006.09
2017-09-07T14:07:30.465Z,1006
2017-09-07T14:08:40.967Z,1006.08
2017-09-07T14:09:50.944Z,1006.1
2017-09-07T14:11:00.587Z,1006.11
2017-09-07T14:12:10.857Z,1006.1